createdAt,value
2023-08-31T00:01:36.083Z,0.55
2023-08-31T00:04:05.541Z,0.60
2023-08-31T00:06:34.057Z,0.52
2023-08-31T00:09:03.167Z,0.77
2023-08-31T00:11:32.733Z,0.60
2023-08-31T00:14:01.189Z,0.57
2023-08-31T00:16:30.972Z,0.80
2023-08-31T00:19:00.159Z,0.80
2023-08-31T00:21:28.659Z,0.82
2023-08-31T00:23:56.999Z,0.70
2023-08-31T00:26:25.848Z,0.60
2023-08-31T00:28:55.103Z,0.50
2023-08-31T00:31:24.533Z,0.60
2023-08-31T00:33:54.315Z,0.68
2023-08-31T00:36:22.706Z,0.50
2023-08-31T00:38:51.173Z,0.60
2023-08-31T00:41:19.627Z,0.45
2023-08-31T00:43:48.077Z,0.90
2023-08-31T00:46:17.616Z,0.70
2023-08-31T00:48:48.193Z,0.85
2023-08-31T00:51:19.833Z,1.00
2023-08-31T00:53:49.580Z,0.60
2023-08-31T00:56:19.834Z,0.80
2023-08-31T00:58:49.618Z,0.68
2023-08-31T01:01:27.829Z,0.93
2023-08-31T01:04:05.453Z,0.50
2023-08-31T01:06:44.206Z,0.25
2023-08-31T01:09:20.689Z,0.80
2023-08-31T01:12:00.245Z,0.93
2023-08-31T01:14:40.667Z,0.80
2023-08-31T01:17:11.124Z,0.65
2023-08-31T01:19:50.437Z,0.50
2023-08-31T01:22:30.056Z,0.32
2023-08-31T01:25:02.584Z,0.43
2023-08-31T01:27:31.923Z,0.88
2023-08-31T01:30:00.331Z,0.50
2023-08-31T01:32:30.005Z,0.70
2023-08-31T01:34:59.820Z,0.77
2023-08-31T01:37:35.774Z,0.60
2023-08-31T01:40:16.084Z,0.45
2023-08-31T01:42:45.637Z,0.40
2023-08-31T01:45:21.747Z,0.52
2023-08-31T01:47:51.466Z,0.40
2023-08-31T01:50:21.057Z,0.43
2023-08-31T01:52:49.481Z,0.40
2023-08-31T01:55:19.805Z,0.30
2023-08-31T01:57:48.275Z,0.82
2023-08-31T02:00:22.870Z,0.50
2023-08-31T02:02:51.613Z,0.50
2023-08-31T02:05:20.112Z,0.50
2023-08-31T02:07:48.568Z,0.90
2023-08-31T02:10:18.593Z,0.77
2023-08-31T02:12:47.006Z,0.60
2023-08-31T02:15:15.460Z,0.63
2023-08-31T02:17:44.636Z,0.47
2023-08-31T02:20:15.304Z,0.40
2023-08-31T02:22:44.055Z,0.52
2023-08-31T02:25:13.754Z,0.68
2023-08-31T02:27:43.664Z,0.40
2023-08-31T02:30:12.426Z,0.40
2023-08-31T02:32:40.910Z,0.52
2023-08-31T02:35:09.756Z,0.82
2023-08-31T02:37:38.083Z,0.52
2023-08-31T02:40:07.673Z,0.50
2023-08-31T02:42:37.799Z,0.47
2023-08-31T02:45:08.871Z,0.73
2023-08-31T02:47:37.408Z,0.60
2023-08-31T02:50:06.821Z,0.50
2023-08-31T02:52:35.381Z,0.50
2023-08-31T02:55:03.990Z,0.60
2023-08-31T02:57:32.485Z,0.57
2023-08-31T03:00:01.227Z,0.40
2023-08-31T03:02:31.388Z,0.45
2023-08-31T03:04:59.836Z,0.90
2023-08-31T03:07:28.304Z,0.60
2023-08-31T03:09:56.754Z,0.73
2023-08-31T03:12:25.085Z,1.00
2023-08-31T03:14:53.517Z,0.82
2023-08-31T03:17:21.855Z,0.82
2023-08-31T03:19:51.735Z,0.55
2023-08-31T03:22:20.437Z,0.70
2023-08-31T03:24:48.766Z,0.52
2023-08-31T03:27:18.118Z,0.82
2023-08-31T03:29:46.597Z,0.88
2023-08-31T03:32:15.041Z,0.70
2023-08-31T03:34:44.287Z,1.17
2023-08-31T03:37:15.356Z,0.70
2023-08-31T03:39:44.133Z,0.50
2023-08-31T03:42:12.518Z,0.68
2023-08-31T03:44:40.986Z,0.70
2023-08-31T03:47:09.386Z,0.50
2023-08-31T03:49:37.788Z,0.88
2023-08-31T03:52:06.775Z,0.60
2023-08-31T03:54:36.592Z,0.73
2023-08-31T03:57:05.346Z,0.60
2023-08-31T03:59:33.724Z,0.70
2023-08-31T04:02:02.191Z,1.00
2023-08-31T04:04:32.598Z,0.80
2023-08-31T04:07:01.156Z,0.52
2023-08-31T04:09:29.580Z,0.47
2023-08-31T04:11:59.643Z,0.50
2023-08-31T04:14:28.723Z,0.60
2023-08-31T04:16:57.134Z,0.60
2023-08-31T04:19:25.706Z,0.90
2023-08-31T04:21:54.035Z,0.52
2023-08-31T04:24:22.528Z,0.70
2023-08-31T04:26:52.446Z,0.65
2023-08-31T04:29:22.343Z,0.68
2023-08-31T04:31:50.812Z,0.55
2023-08-31T04:34:19.124Z,0.73
2023-08-31T04:36:47.846Z,0.47
2023-08-31T04:39:16.115Z,0.75
2023-08-31T04:41:44.566Z,0.40
2023-08-31T04:44:13.130Z,0.52
2023-08-31T04:46:42.946Z,0.52
2023-08-31T04:49:11.337Z,0.98
2023-08-31T04:51:40.659Z,1.00
2023-08-31T04:54:10.118Z,0.68
2023-08-31T04:56:38.866Z,0.60
2023-08-31T04:59:07.271Z,0.60
2023-08-31T05:01:35.721Z,0.60
2023-08-31T05:04:05.984Z,0.80
2023-08-31T05:06:34.598Z,0.60
2023-08-31T05:09:03.946Z,1.10
2023-08-31T05:11:32.429Z,0.55
2023-08-31T05:14:00.863Z,0.75
2023-08-31T05:16:29.303Z,0.52
2023-08-31T05:18:57.723Z,1.00
2023-08-31T05:21:27.626Z,0.63
2023-08-31T05:23:56.097Z,0.90
2023-08-31T05:26:25.028Z,1.00
2023-08-31T05:28:53.479Z,0.55
2023-08-31T05:31:21.851Z,0.65
2023-08-31T05:33:50.266Z,0.63
2023-08-31T05:36:18.663Z,0.70
2023-08-31T05:38:48.367Z,0.60
2023-08-31T05:41:17.713Z,0.60
2023-08-31T05:43:46.842Z,0.73
2023-08-31T05:46:15.416Z,0.60
2023-08-31T05:48:44.098Z,0.57
2023-08-31T05:51:12.777Z,0.80
2023-08-31T05:53:41.088Z,0.60
2023-08-31T05:56:10.977Z,0.80
2023-08-31T05:58:39.725Z,1.80
2023-08-31T06:01:08.359Z,0.80
2023-08-31T06:03:37.657Z,0.68
2023-08-31T06:06:06.057Z,0.85
2023-08-31T06:08:34.500Z,0.63
2023-08-31T06:11:02.858Z,1.40
2023-08-31T06:13:32.749Z,1.10
2023-08-31T06:16:01.169Z,0.90
2023-08-31T06:18:29.617Z,1.00
2023-08-31T06:20:58.358Z,0.70
2023-08-31T06:23:26.766Z,1.00
2023-08-31T06:25:55.164Z,1.15
2023-08-31T06:28:23.486Z,0.93
2023-08-31T06:30:53.272Z,0.82
2023-08-31T06:33:21.679Z,1.13
2023-08-31T06:35:53.305Z,1.33
2023-08-31T06:38:22.667Z,1.05
2023-08-31T06:40:51.155Z,1.10
2023-08-31T06:43:19.586Z,1.10
2023-08-31T06:45:49.052Z,1.38
2023-08-31T06:48:18.900Z,1.27
2023-08-31T06:50:47.945Z,1.17
2023-08-31T06:53:16.281Z,1.00
2023-08-31T06:55:45.282Z,1.33
2023-08-31T06:58:13.626Z,1.23
2023-08-31T07:00:42.060Z,1.13
2023-08-31T07:03:10.659Z,0.88
2023-08-31T07:05:44.871Z,1.15
2023-08-31T07:08:13.416Z,0.90
2023-08-31T07:10:41.858Z,1.15
2023-08-31T07:13:10.606Z,1.05
2023-08-31T07:15:39.130Z,1.15
2023-08-31T07:18:07.657Z,1.15
2023-08-31T07:20:36.091Z,1.23
2023-08-31T07:23:06.337Z,1.30
2023-08-31T07:25:34.818Z,1.25
2023-08-31T07:28:04.246Z,0.95
2023-08-31T07:30:34.455Z,1.38
2023-08-31T07:33:13.854Z,0.98
2023-08-31T07:35:45.742Z,0.90
2023-08-31T07:38:15.517Z,0.88
2023-08-31T07:40:47.194Z,0.95
2023-08-31T07:43:16.115Z,0.98
2023-08-31T07:45:44.698Z,1.30
2023-08-31T07:48:13.196Z,1.10
2023-08-31T07:50:42.966Z,1.20
2023-08-31T07:53:11.679Z,1.27
2023-08-31T07:55:41.832Z,0.95
2023-08-31T07:58:10.221Z,1.80
2023-08-31T08:00:38.682Z,1.60
2023-08-31T08:03:07.482Z,0.85
2023-08-31T08:05:35.905Z,1.00
2023-08-31T08:08:04.672Z,1.00
2023-08-31T08:10:32.997Z,1.10
2023-08-31T08:13:03.126Z,1.30
2023-08-31T08:15:34.988Z,0.85
2023-08-31T08:18:04.507Z,0.77
2023-08-31T08:20:34.013Z,1.17
2023-08-31T08:23:05.600Z,0.80
2023-08-31T08:25:35.343Z,0.85
2023-08-31T08:28:05.521Z,1.30
2023-08-31T08:30:33.954Z,1.00
2023-08-31T08:33:02.379Z,1.05
2023-08-31T08:35:30.866Z,1.17
2023-08-31T08:37:59.145Z,1.23
2023-08-31T08:40:27.803Z,0.85
2023-08-31T08:42:57.426Z,1.30
2023-08-31T08:45:28.845Z,1.13
2023-08-31T08:47:59.979Z,1.50
2023-08-31T08:50:30.293Z,1.00
2023-08-31T08:52:58.708Z,1.33
2023-08-31T08:55:27.129Z,1.42
2023-08-31T08:57:55.607Z,0.90
2023-08-31T09:00:24.000Z,1.25
2023-08-31T09:02:53.922Z,1.27
2023-08-31T09:05:22.592Z,1.17
2023-08-31T09:08:03.448Z,1.15
2023-08-31T09:10:39.752Z,2.38
2023-08-31T09:13:10.275Z,1.08
2023-08-31T09:15:43.286Z,1.35
2023-08-31T09:18:17.298Z,1.30
2023-08-31T09:20:47.238Z,1.38
2023-08-31T09:23:16.076Z,1.38
2023-08-31T09:25:46.014Z,1.67
2023-08-31T09:28:15.352Z,1.65
2023-08-31T09:30:45.636Z,2.55
2023-08-31T09:33:18.839Z,2.50
2023-08-31T09:35:53.080Z,2.72
2023-08-31T09:38:22.206Z,2.38
2023-08-31T09:40:50.685Z,2.50
2023-08-31T09:43:23.390Z,3.22
2023-08-31T09:45:53.036Z,3.67
2023-08-31T09:48:24.510Z,2.63
2023-08-31T09:50:54.214Z,2.70
2023-08-31T09:53:23.456Z,2.17
2023-08-31T09:55:55.316Z,1.88
2023-08-31T09:58:24.304Z,2.10
2023-08-31T10:00:54.099Z,2.22
2023-08-31T10:03:24.209Z,2.75
2023-08-31T10:05:52.947Z,2.70
2023-08-31T10:08:21.455Z,2.70
2023-08-31T10:10:49.939Z,2.33
2023-08-31T10:13:19.184Z,1.95
2023-08-31T10:15:51.220Z,2.15
2023-08-31T10:18:20.414Z,2.17
2023-08-31T10:20:50.693Z,1.45
2023-08-31T10:23:19.186Z,2.10
2023-08-31T10:26:04.881Z,1.50
2023-08-31T10:28:42.893Z,1.17
2023-08-31T10:31:17.689Z,1.55
2023-08-31T10:33:47.041Z,1.10
2023-08-31T10:36:18.638Z,1.00
2023-08-31T10:38:50.043Z,1.35
2023-08-31T10:41:23.043Z,1.55
2023-08-31T10:43:53.736Z,1.05
2023-08-31T10:46:30.463Z,1.40
2023-08-31T10:49:00.045Z,0.95
2023-08-31T10:51:31.818Z,1.30
2023-08-31T10:54:12.076Z,1.00
2023-08-31T10:57:06.584Z,1.20
2023-08-31T10:59:46.248Z,1.38
2023-08-31T11:02:30.651Z,1.95
2023-08-31T11:05:05.275Z,1.00
2023-08-31T11:07:37.808Z,1.13
2023-08-31T11:10:12.444Z,1.13
2023-08-31T11:12:41.064Z,1.38
2023-08-31T11:15:10.334Z,1.30
2023-08-31T11:17:41.506Z,0.82
2023-08-31T11:20:11.174Z,1.27
2023-08-31T11:22:46.179Z,0.85
2023-08-31T11:25:17.862Z,1.20
2023-08-31T11:27:58.548Z,0.85
2023-08-31T11:30:28.062Z,1.00
2023-08-31T11:32:57.081Z,1.17
2023-08-31T11:35:26.118Z,1.20
2023-08-31T11:37:58.311Z,1.00
2023-08-31T11:40:28.758Z,1.17
2023-08-31T11:42:57.677Z,0.90
2023-08-31T11:45:26.734Z,1.10
2023-08-31T11:47:56.696Z,0.70
2023-08-31T11:50:26.598Z,0.98
2023-08-31T11:52:57.016Z,0.73
2023-08-31T11:55:25.411Z,0.70
2023-08-31T11:57:55.900Z,0.57
2023-08-31T12:00:25.691Z,0.80
2023-08-31T12:02:59.684Z,0.60
2023-08-31T12:05:28.669Z,0.95
2023-08-31T12:07:59.206Z,0.90
2023-08-31T12:10:28.577Z,1.00
2023-08-31T12:13:09.972Z,0.88
2023-08-31T12:15:38.821Z,0.98
2023-08-31T12:18:11.231Z,1.00
2023-08-31T12:20:46.113Z,0.50
2023-08-31T12:23:17.336Z,0.70
2023-08-31T12:25:50.534Z,0.80
2023-08-31T12:28:19.386Z,0.70
2023-08-31T12:30:51.147Z,1.00
2023-08-31T12:33:20.647Z,0.82
2023-08-31T12:35:49.548Z,0.95
2023-08-31T12:38:20.303Z,0.65
2023-08-31T12:40:48.856Z,0.50
2023-08-31T12:43:18.248Z,0.75
2023-08-31T12:45:46.977Z,0.55
2023-08-31T12:48:15.578Z,0.70
2023-08-31T12:50:44.023Z,0.80
2023-08-31T12:53:12.645Z,0.70
2023-08-31T12:55:42.909Z,1.10
2023-08-31T12:58:11.284Z,0.80
2023-08-31T13:00:40.367Z,0.60
2023-08-31T13:03:09.167Z,0.70
2023-08-31T13:05:40.983Z,1.27
2023-08-31T13:08:10.244Z,0.70
2023-08-31T13:10:38.816Z,1.02
2023-08-31T13:13:08.690Z,0.95
2023-08-31T13:15:37.352Z,1.00
2023-08-31T13:18:06.672Z,0.73
2023-08-31T13:20:35.428Z,0.75
2023-08-31T13:23:04.293Z,0.98
2023-08-31T13:25:33.639Z,0.90
2023-08-31T13:28:02.146Z,1.25
2023-08-31T13:30:33.429Z,1.10
2023-08-31T13:33:02.119Z,1.25
2023-08-31T13:35:30.528Z,0.88
2023-08-31T13:37:58.987Z,2.33
2023-08-31T13:40:27.506Z,1.00
2023-08-31T13:42:58.233Z,0.80
2023-08-31T13:45:26.683Z,1.10
2023-08-31T13:47:56.756Z,1.08
2023-08-31T13:50:27.808Z,0.90
2023-08-31T13:52:57.444Z,0.98
2023-08-31T13:55:25.874Z,1.17
2023-08-31T13:57:54.279Z,1.00
2023-08-31T14:00:22.873Z,1.65
2023-08-31T14:02:51.632Z,1.05
2023-08-31T14:05:21.885Z,1.20
2023-08-31T14:07:50.255Z,1.45
2023-08-31T14:10:18.634Z,1.15
2023-08-31T14:12:49.485Z,1.05
2023-08-31T14:15:18.246Z,0.90
2023-08-31T14:17:46.683Z,1.60
2023-08-31T14:20:15.231Z,1.40
2023-08-31T14:22:46.609Z,0.85
2023-08-31T14:25:15.376Z,1.13
2023-08-31T14:27:43.997Z,1.02
2023-08-31T14:30:12.985Z,1.08
2023-08-31T14:32:41.462Z,0.82
2023-08-31T14:35:09.952Z,1.00
2023-08-31T14:37:38.354Z,0.75
2023-08-31T14:40:09.704Z,0.88
2023-08-31T14:42:38.766Z,1.02
2023-08-31T14:45:08.257Z,0.60
2023-08-31T14:47:36.781Z,0.85
2023-08-31T14:50:06.555Z,0.93
2023-08-31T14:52:35.010Z,0.77
2023-08-31T14:55:05.147Z,1.13
2023-08-31T14:57:34.954Z,1.10
2023-08-31T15:00:07.307Z,0.80
2023-08-31T15:02:35.815Z,1.00
2023-08-31T15:05:06.191Z,1.20
2023-08-31T15:07:34.645Z,1.13
2023-08-31T15:10:04.566Z,1.05
2023-08-31T15:12:34.904Z,1.10
2023-08-31T15:15:04.904Z,1.15
2023-08-31T15:17:33.384Z,1.50
2023-08-31T15:20:01.898Z,1.15
2023-08-31T15:22:30.319Z,1.10
2023-08-31T15:24:58.937Z,0.98
2023-08-31T15:27:27.346Z,0.90
2023-08-31T15:29:57.151Z,1.13
2023-08-31T15:32:25.627Z,1.02
2023-08-31T15:34:55.304Z,1.20
2023-08-31T15:37:23.721Z,1.00
2023-08-31T15:39:53.995Z,1.60
2023-08-31T15:42:25.849Z,1.52
2023-08-31T15:44:56.760Z,1.20
2023-08-31T15:47:26.710Z,1.33
2023-08-31T15:49:57.026Z,1.90
2023-08-31T15:52:25.419Z,1.60
2023-08-31T15:54:54.418Z,2.25
2023-08-31T15:57:22.883Z,1.90
2023-08-31T15:59:51.336Z,2.00
2023-08-31T16:02:19.819Z,2.22
2023-08-31T16:04:49.723Z,2.58
2023-08-31T16:07:18.207Z,1.73
2023-08-31T16:09:48.282Z,2.28
2023-08-31T16:12:16.655Z,1.75
2023-08-31T16:14:48.988Z,1.98
2023-08-31T16:17:17.548Z,2.03
2023-08-31T16:19:45.951Z,2.22
2023-08-31T16:22:15.765Z,1.75
2023-08-31T16:24:44.166Z,2.35
2023-08-31T16:27:12.638Z,1.95
2023-08-31T16:29:41.039Z,1.67
2023-08-31T16:32:09.726Z,1.98
2023-08-31T16:34:38.154Z,1.40
2023-08-31T16:37:07.071Z,1.95
2023-08-31T16:39:36.858Z,1.80
2023-08-31T16:42:05.805Z,2.00
2023-08-31T16:44:34.298Z,2.40
2023-08-31T16:47:02.683Z,2.38
2023-08-31T16:49:31.167Z,1.52
2023-08-31T16:51:59.637Z,1.67
2023-08-31T16:54:28.100Z,1.80
2023-08-31T16:56:58.367Z,1.38
2023-08-31T16:59:26.729Z,1.58
2023-08-31T17:01:55.211Z,2.00
2023-08-31T17:04:25.607Z,1.63
2023-08-31T17:06:54.352Z,1.38
2023-08-31T17:09:22.688Z,1.33
2023-08-31T17:11:51.165Z,1.30
2023-08-31T17:14:21.136Z,1.40
2023-08-31T17:16:49.472Z,1.70
2023-08-31T17:19:17.922Z,1.48
2023-08-31T17:21:46.507Z,1.30
2023-08-31T17:24:14.846Z,0.93
2023-08-31T17:26:43.499Z,1.45
2023-08-31T17:29:12.167Z,1.30
2023-08-31T17:31:43.197Z,1.33
2023-08-31T17:34:17.545Z,1.05
2023-08-31T17:36:46.498Z,0.95
2023-08-31T17:39:15.235Z,1.20
2023-08-31T17:41:43.719Z,1.58
2023-08-31T17:44:12.087Z,1.00
2023-08-31T17:46:41.962Z,1.20
2023-08-31T17:49:10.574Z,0.73
2023-08-31T17:51:38.959Z,0.77
2023-08-31T17:54:07.965Z,0.80
2023-08-31T17:56:36.405Z,0.77
2023-08-31T17:59:06.419Z,1.00
2023-08-31T18:01:35.336Z,0.52
2023-08-31T18:04:05.666Z,0.63
2023-08-31T18:06:34.525Z,0.55
2023-08-31T18:09:05.874Z,0.40
2023-08-31T18:11:34.368Z,0.80
2023-08-31T18:14:04.279Z,0.93
2023-08-31T18:16:32.757Z,0.77
2023-08-31T18:19:01.135Z,0.60
2023-08-31T18:21:31.096Z,0.90
2023-08-31T18:23:59.555Z,0.80
2023-08-31T18:26:27.976Z,0.80
2023-08-31T18:28:56.502Z,0.77
2023-08-31T18:31:26.285Z,0.80
2023-08-31T18:33:54.860Z,0.90
2023-08-31T18:36:23.304Z,1.33
2023-08-31T18:38:53.107Z,0.80
2023-08-31T18:41:21.650Z,0.85
2023-08-31T18:43:50.176Z,0.70
2023-08-31T18:46:19.441Z,1.10
2023-08-31T18:48:47.897Z,0.90
2023-08-31T18:51:16.246Z,0.80
2023-08-31T18:53:44.546Z,0.73
2023-08-31T18:56:14.340Z,0.73
2023-08-31T18:58:44.857Z,0.80
2023-08-31T19:01:13.461Z,0.85
2023-08-31T19:03:41.866Z,0.82
2023-08-31T19:06:10.476Z,0.75
2023-08-31T19:08:38.845Z,0.98
2023-08-31T19:11:10.676Z,0.90
2023-08-31T19:13:40.545Z,0.90
2023-08-31T19:16:09.062Z,0.95
2023-08-31T19:18:41.592Z,1.80
2023-08-31T19:21:19.817Z,1.33
2023-08-31T19:23:49.644Z,1.80
2023-08-31T19:26:18.183Z,1.25
2023-08-31T19:28:47.997Z,1.45
2023-08-31T19:31:16.414Z,1.65
2023-08-31T19:33:44.961Z,2.33
2023-08-31T19:36:13.998Z,1.90
2023-08-31T19:38:42.615Z,1.73
2023-08-31T19:41:11.096Z,1.88
2023-08-31T19:43:39.386Z,2.20
2023-08-31T19:46:13.045Z,1.58
2023-08-31T19:48:41.717Z,1.95
2023-08-31T19:51:10.876Z,2.58
2023-08-31T19:53:39.313Z,2.17
2023-08-31T19:56:08.481Z,2.25
2023-08-31T19:58:36.950Z,2.60
2023-08-31T20:01:05.353Z,2.00
2023-08-31T20:03:39.628Z,2.70
2023-08-31T20:06:08.348Z,2.03
2023-08-31T20:08:38.379Z,2.05
2023-08-31T20:11:06.927Z,2.70
2023-08-31T20:13:35.345Z,2.45
2023-08-31T20:16:04.838Z,2.60
2023-08-31T20:18:33.240Z,2.60
2023-08-31T20:21:03.064Z,2.42
2023-08-31T20:23:31.426Z,2.40
2023-08-31T20:25:59.888Z,2.72
2023-08-31T20:28:28.333Z,2.40
2023-08-31T20:30:58.900Z,2.38
2023-08-31T20:33:27.474Z,2.58
2023-08-31T20:36:06.946Z,2.40
2023-08-31T20:38:36.484Z,2.53
2023-08-31T20:41:05.624Z,2.88
2023-08-31T20:43:35.189Z,2.65
2023-08-31T20:46:08.981Z,3.20
2023-08-31T20:48:37.549Z,2.75
2023-08-31T20:51:08.629Z,2.88
2023-08-31T20:53:37.352Z,2.85
2023-08-31T20:56:09.664Z,3.45
2023-08-31T20:58:39.135Z,2.92
2023-08-31T21:01:08.122Z,3.47
2023-08-31T21:03:40.115Z,3.33
2023-08-31T21:06:10.640Z,3.20
2023-08-31T21:08:39.467Z,3.40
2023-08-31T21:11:07.962Z,3.05
2023-08-31T21:13:38.486Z,3.70
2023-08-31T21:16:07.371Z,3.20
2023-08-31T21:18:37.411Z,3.95
2023-08-31T21:21:06.650Z,3.58
2023-08-31T21:23:36.946Z,3.85
2023-08-31T21:26:07.786Z,3.67
2023-08-31T21:28:36.839Z,3.40
2023-08-31T21:31:05.503Z,3.97
2023-08-31T21:33:34.161Z,3.53
2023-08-31T21:36:04.504Z,4.03
2023-08-31T21:38:33.380Z,4.03
2023-08-31T21:41:06.789Z,4.18
2023-08-31T21:43:36.054Z,3.85
2023-08-31T21:46:05.082Z,3.35
2023-08-31T21:48:34.004Z,4.10
2023-08-31T21:51:02.423Z,5.20
2023-08-31T21:53:31.123Z,4.15
2023-08-31T21:56:05.529Z,3.55
2023-08-31T21:58:34.236Z,3.92
2023-08-31T22:01:04.278Z,3.13
2023-08-31T22:03:33.400Z,3.63
2023-08-31T22:06:08.353Z,3.13
2023-08-31T22:08:37.563Z,3.20
2023-08-31T22:11:08.155Z,3.58
2023-08-31T22:13:36.903Z,3.30
2023-08-31T22:16:15.636Z,3.45
2023-08-31T22:18:50.505Z,2.72
2023-08-31T22:21:19.372Z,2.63
2023-08-31T22:23:47.817Z,3.00
2023-08-31T22:26:17.790Z,2.92
2023-08-31T22:28:46.289Z,3.53
2023-08-31T22:31:14.797Z,3.13
2023-08-31T22:33:43.316Z,3.10
2023-08-31T22:36:11.717Z,3.42
2023-08-31T22:38:40.176Z,3.10
2023-08-31T22:41:08.774Z,2.95
2023-08-31T22:43:42.448Z,3.58
2023-08-31T22:46:11.285Z,2.85
2023-08-31T22:48:39.844Z,2.78
2023-08-31T22:51:08.336Z,3.10
2023-08-31T22:53:36.775Z,3.30
2023-08-31T22:56:07.603Z,3.15
2023-08-31T22:58:35.983Z,3.03
2023-08-31T23:01:05.837Z,3.13
2023-08-31T23:03:34.262Z,3.42
2023-08-31T23:06:02.611Z,2.80
2023-08-31T23:08:31.009Z,2.05
2023-08-31T23:11:00.321Z,2.83
2023-08-31T23:13:29.302Z,2.65
2023-08-31T23:15:58.388Z,2.30
2023-08-31T23:18:28.381Z,3.22
2023-08-31T23:21:04.779Z,3.33
2023-08-31T23:23:33.438Z,3.00
2023-08-31T23:26:01.923Z,3.17
2023-08-31T23:28:31.407Z,3.67
2023-08-31T23:31:00.386Z,3.88
2023-08-31T23:33:30.362Z,3.65
2023-08-31T23:35:59.049Z,3.40
2023-08-31T23:38:27.565Z,3.92
2023-08-31T23:40:57.555Z,4.57
2023-08-31T23:43:26.366Z,4.85
2023-08-31T23:45:54.804Z,4.45
2023-08-31T23:48:23.255Z,4.35
2023-08-31T23:50:53.023Z,4.53
2023-08-31T23:53:21.509Z,4.75
2023-08-31T23:55:51.114Z,4.50
2023-08-31T23:58:19.613Z,5.03
